Flight Track Log - Related Links

Times and Time Zones

All times are in EDT time to prevent confusion due to time zone crossing. See the N317FL flight status page for this flight to view local times or setup timezone preferences in your user account.

Time Position Orientation Groundspeed Altitude Reporting Facility
EDT Latitude Longitude Course Direction KTS MPH feet Rate Location/Type
Wed 12:37:12 PM 38.9250 -77.4380 186° South 177 204 1,800  Level FlightAware ADS-B
Wed 12:37:42 PM 38.8960 -77.4410 185° South 225 259 3,500 3,200 Climbing FlightAware ADS-B
Wed 12:38:12 PM 38.8620 -77.4450 185° South 244 281 5,000 3,709 Climbing FlightAware ADS-B
Wed 12:38:37 PM 38.8350 -77.4480 185° South 255 293 6,900 4,145 Climbing FlightAware ADS-B
Wed 12:39:07 PM 38.8000 -77.4640 200° South 278 320 8,800 3,333 Climbing FlightAware ADS-B
Wed 12:39:22 PM 38.7850 -77.4820 223° Southwest 287 330 9,400 1,200 Climbing FlightAware ADS-B
Wed 12:39:47 PM 38.7610 -77.5110 223° Southwest 301 346 9,600 133 Climbing FlightAware ADS-B
Wed 12:40:07 PM 38.7400 -77.5370 224° Southwest 294 338 9,500  Descending FlightAware ADS-B
Wed 12:40:42 PM 38.7050 -77.5790 223° Southwest 310 357 9,600 133 Climbing FlightAware ADS-B
Wed 12:40:52 PM 38.6930 -77.5900 216° Southwest 307 353 9,600 600 Level FlightAware ADS-B
Wed 12:41:12 PM 38.6660 -77.6000 196° South 303 349 9,900 1,029 Climbing FlightAware ADS-B
Wed 12:41:27 PM 38.6460 -77.6090 199° South 299 344 10,200 1,636 Climbing FlightAware ADS-B
Wed 12:42:07 PM 38.6010 -77.6540 218° Southwest 306 352 11,400 2,325 Climbing FlightAware ADS-B
Wed 12:42:47 PM 38.5590 -77.6970 219° Southwest 303 349 13,300 3,106 Climbing FlightAware ADS-B
Wed 12:43:32 PM 38.5170 -77.7590 229° Southwest 298 343 15,800 3,106 Climbing FlightAware ADS-B
Wed 12:44:12 PM 38.4790 -77.8120 228° Southwest 312 359 17,700 2,612 Climbing FlightAware ADS-B
Wed 12:44:57 PM 38.4350 -77.8720 227° Southwest 331 381 19,500 2,682 Climbing FlightAware ADS-B
Wed 12:45:37 PM 38.3890 -77.9310 225° Southwest 340 391 21,500 3,150 Climbing FlightAware ADS-B
Wed 12:46:17 PM 38.3440 -77.9890 225° Southwest 335 386 23,700 3,086 Climbing FlightAware ADS-B
Wed 12:46:47 PM 38.3120 -78.0300 225° Southwest 336 387 25,100 2,800 Climbing FlightAware ADS-B
Wed 12:47:02 PM 38.2990 -78.0570 238° Southwest 331 381 25,800 2,073 Climbing FlightAware ADS-B
Wed 12:47:42 PM 38.2740 -78.1280 246° West 354 407 27,000 720 Climbing FlightAware ADS-B
Wed 12:48:42 PM 38.2320 -78.2410 245° Southwest 412 474 27,000  Level FlightAware ADS-B
Wed 12:49:37 PM 38.1900 -78.3530 245° Southwest 426 490 27,000  Level FlightAware ADS-B
Wed 12:50:16 PM 38.1581 -78.4464 245° Southwest 406 467 27,000 1,113 Level Washington Center
Wed 12:51:14 PM 38.1067 -78.5842 245° Southwest 414 476 28,800 1,866 Climbing Washington Center
Wed 12:52:15 PM 38.0622 -78.6986 244° Southwest 409 471 30,700 2,459 Climbing Washington Center
Wed 12:53:16 PM 38.0172 -78.8153 244° Southwest 391 450 33,800 2,430 Climbing Washington Center
Wed 12:54:16 PM 37.9725 -78.9319 244° Southwest 377 434 35,600 1,100 Climbing Washington Center
Wed 12:55:16 PM 37.9253 -79.0536 244° Southwest 377 434 36,000 203 Climbing Washington Center
Wed 12:56:14 PM 37.8628 -79.1903 240° Southwest 402 463 36,000 712 Level Washington Center
Wed 12:57:14 PM 37.8028 -79.3133 238° Southwest 408 470 37,400 1,884 Climbing Washington Center
Wed 12:58:15 PM 37.7492 -79.4236 238° Southwest 400 460 39,800 2,262 Climbing Washington Center
Wed 12:59:16 PM 37.6958 -79.5233 236° Southwest 367 422 42,000 1,613 Climbing Washington Center
Wed 01:00:14 PM 37.6467 -79.6231 238° Southwest 338 389 43,000 504 Climbing Washington Center
Wed 01:01:15 PM 37.5953 -79.7253 238° Southwest 338 389 43,000  Level Washington Center
Wed 01:02:15 PM 37.5414 -79.8322 238° Southwest 357 411 43,000  Level Washington Center
Wed 01:03:15 PM 37.4831 -79.9494 238° Southwest 379 436 43,000  Level Washington Center
Wed 01:05:16 PM 37.3692 -80.1664 237° Southwest 389 448 43,000  Level Atlanta Center
Wed 01:06:16 PM 37.3103 -80.2789 237° Southwest 389 448 43,000  Level Atlanta Center
Wed 01:07:16 PM 37.2472 -80.4019 237° Southwest 389 448 43,000  Level Atlanta Center
Wed 01:08:16 PM 37.1900 -80.5114 237° Southwest 389 448 43,000  Level Atlanta Center
Wed 01:13:36 PM 36.9297 -81.1037 237° Southwest 358 412 43,000  Level FlightAware ADS-B
Wed 01:14:16 PM 36.8970 -81.1748 240° Southwest 357 411 43,000  Level FlightAware ADS-B
Wed 01:18:10 PM 36.7028 -81.5958 240° Southwest 357 411 43,000  Level FlightAware ADS-B
Wed 01:18:43 PM 36.6755 -81.6546 240° Southwest 355 409 43,000  Level FlightAware ADS-B
Wed 01:19:16 PM 36.6486 -81.7124 240° Southwest 354 407 43,000  Level FlightAware ADS-B
Wed 01:19:48 PM 36.6226 -81.7680 240° Southwest 351 404 43,000  Level FlightAware ADS-B
Wed 01:20:19 PM 36.5976 -81.8217 240° Southwest 350 403 43,000  Level FlightAware ADS-B
Wed 01:20:52 PM 36.5706 -81.8793 240° Southwest 349 402 43,000  Level FlightAware ADS-B
Wed 01:21:26 PM 36.5433 -81.9376 240° Southwest 348 400 43,000  Level FlightAware ADS-B
Wed 01:24:43 PM 36.3848 -82.2739 240° Southwest 341 392 43,000  Level FlightAware ADS-B
Wed 01:25:17 PM 36.3585 -82.3295 240° Southwest 339 390 43,000  Level FlightAware ADS-B
Wed 01:25:52 PM 36.3301 -82.3891 239° Southwest 339 390 43,000  Level FlightAware ADS-B
Wed 01:26:23 PM 36.3059 -82.4400 239° Southwest 339 390 43,000  Level FlightAware ADS-B
Wed 01:27:30 PM 36.2523 -82.5523 239° Southwest 338 389 43,000  Level FlightAware ADS-B
Wed 01:28:46 PM 36.1922 -82.6780 239° Southwest 337 388 43,000  Level FlightAware ADS-B
Wed 01:29:38 PM 36.1501 -82.7655 239° Southwest 337 388 43,000  Level FlightAware ADS-B
Wed 01:30:12 PM 36.1236 -82.8208 239° Southwest 337 388 43,000  Level FlightAware ADS-B
Wed 01:30:45 PM 36.0975 -82.8749 239° Southwest 336 387 43,000  Level FlightAware ADS-B
Wed 01:31:18 PM 36.0713 -82.9293 239° Southwest 336 387 43,000  Level FlightAware ADS-B
Wed 01:31:49 PM 36.0465 -82.9804 239° Southwest 335 386 43,000  Level FlightAware ADS-B
Wed 01:32:20 PM 36.0214 -83.0323 239° Southwest 335 386 43,000  Level FlightAware ADS-B
Wed 01:32:51 PM 35.9969 -83.0828 239° Southwest 335 386 43,000  Level FlightAware ADS-B
Wed 01:33:29 PM 35.9667 -83.1452 239° Southwest 335 386 43,000  Level FlightAware ADS-B
Wed 01:34:02 PM 35.9402 -83.1995 239° Southwest 335 386 43,000  Level FlightAware ADS-B
Wed 01:34:33 PM 35.9158 -83.2496 239° Southwest 335 386 43,000  Level FlightAware ADS-B
Wed 01:35:06 PM 35.8896 -83.3034 239° Southwest 335 386 43,000  Level FlightAware ADS-B
Wed 01:35:36 PM 35.8650 -83.3538 239° Southwest 337 388 43,000  Level FlightAware ADS-B
Wed 01:36:08 PM 35.8391 -83.4066 239° Southwest 337 388 43,000  Level FlightAware ADS-B
Wed 01:36:39 PM 35.8143 -83.4573 239° Southwest 339 390 43,000  Level FlightAware ADS-B
Wed 01:37:10 PM 35.7894 -83.5079 239° Southwest 340 391 43,000  Level FlightAware ADS-B
Wed 01:37:41 PM 35.7641 -83.5593 239° Southwest 341 392 43,000  Level FlightAware ADS-B
Wed 01:38:11 PM 35.7392 -83.6100 239° Southwest 342 394 43,000  Level FlightAware ADS-B
Wed 01:38:44 PM 35.7119 -83.6652 239° Southwest 341 392 43,000  Level FlightAware ADS-B
Wed 01:39:15 PM 35.6869 -83.7159 239° Southwest 342 394 43,000  Level FlightAware ADS-B
Wed 01:39:45 PM 35.6617 -83.7668 239° Southwest 344 396 43,000  Level FlightAware ADS-B
Wed 01:40:17 PM 35.6360 -83.8188 239° Southwest 345 397 43,000  Level FlightAware ADS-B
Wed 01:40:48 PM 35.6100 -83.8711 239° Southwest 345 397 43,000  Level FlightAware ADS-B
Wed 01:41:18 PM 35.5848 -83.9218 239° Southwest 346 398 43,000  Level FlightAware ADS-B
Wed 01:41:51 PM 35.5570 -83.9778 239° Southwest 346 398 43,000  Level FlightAware ADS-B
Wed 01:42:22 PM 35.5318 -84.0284 239° Southwest 347 399 43,000  Level FlightAware ADS-B
Wed 01:42:53 PM 35.5056 -84.0808 238° Southwest 347 399 43,000  Level FlightAware ADS-B
Wed 01:43:24 PM 35.4790 -84.1341 239° Southwest 347 399 43,000  Level FlightAware ADS-B
Wed 01:43:55 PM 35.4533 -84.1852 238° Southwest 347 399 43,000  Level FlightAware ADS-B
Wed 01:44:27 PM 35.4265 -84.2387 238° Southwest 346 398 43,000  Level FlightAware ADS-B
Wed 01:44:59 PM 35.4000 -84.2914 238° Southwest 346 398 43,000  Level FlightAware ADS-B
Wed 01:45:29 PM 35.3745 -84.3420 238° Southwest 345 397 43,000  Level FlightAware ADS-B
Wed 01:46:00 PM 35.3489 -84.3930 238° Southwest 345 397 43,000  Level FlightAware ADS-B
Wed 01:46:30 PM 35.3231 -84.4441 238° Southwest 346 398 43,000 -390 Level FlightAware ADS-B
Wed 01:47:17 PM 35.2910 -84.5070 238° Southwest 351 404 42,500 -1,313 Descending FlightAware ADS-B
Wed 01:47:34 PM 35.2683 -84.5524 239° Southwest 364 419 41,600 -2,000 Descending FlightAware ADS-B
Wed 01:48:14 PM 35.2343 -84.6195 238° Southwest 339 390 40,600 -1,371 Descending FlightAware ADS-B
Wed 01:48:44 PM 35.2098 -84.6679 238° Southwest 333 383 40,000 -590 Descending FlightAware ADS-B
Wed 01:49:15 PM 35.1843 -84.7179 238° Southwest 327 376 40,000  Level FlightAware ADS-B
Wed 01:49:46 PM 35.1598 -84.7660 238° Southwest 320 368 40,000  Level FlightAware ADS-B
Wed 01:50:17 PM 35.1357 -84.8133 238° Southwest 317 365 40,000  Level FlightAware ADS-B
Wed 01:50:48 PM 35.1119 -84.8599 238° Southwest 314 361 40,000  Level FlightAware ADS-B
Wed 01:51:19 PM 35.0884 -84.9061 238° Southwest 313 360 40,000  Level FlightAware ADS-B
Wed 01:51:49 PM 35.0647 -84.9523 238° Southwest 315 362 40,000 -885 Level FlightAware ADS-B
Wed 01:52:20 PM 35.0402 -85.0000 238° Southwest 326 375 39,100 -1,705 Descending FlightAware ADS-B
Wed 01:53:17 PM 34.9950 -85.0880 238° Southwest 349 402 37,500 -1,806 Descending FlightAware ADS-B
Wed 01:53:53 PM 34.9611 -85.1530 238° Southwest 361 415 36,300 -1,917 Descending FlightAware ADS-B
Wed 01:54:29 PM 34.9210 -85.2090 229° Southwest 372 428 35,200 -1,235 Descending FlightAware ADS-B
Wed 01:55:01 PM 34.8849 -85.2591 229° Southwest 370 426 34,900 -971 Descending FlightAware ADS-B
Wed 01:55:37 PM 34.8431 -85.3170 229° Southwest 390 449 34,100 -1,273 Descending FlightAware ADS-B
Wed 01:56:07 PM 34.8058 -85.3686 229° Southwest 399 459 33,500 -1,180 Descending FlightAware ADS-B
Wed 01:56:38 PM 34.7685 -85.4200 229° Southwest 395 455 32,900 -1,161 Descending FlightAware ADS-B
Wed 01:57:09 PM 34.7314 -85.4711 229° Southwest 388 447 32,300 -1,143 Descending FlightAware ADS-B
Wed 01:57:41 PM 34.6939 -85.5225 228° Southwest 385 443 31,700 -1,125 Descending FlightAware ADS-B
Wed 01:58:13 PM 34.6564 -85.5739 228° Southwest 379 436 31,100 -1,059 Descending FlightAware ADS-B
Wed 01:58:49 PM 34.6140 -85.6320 228° Southwest 377 434 30,500 -1,091 Descending FlightAware ADS-B
Wed 01:59:30 PM 34.5664 -85.6971 228° Southwest 376 433 29,700 -1,459 Descending FlightAware ADS-B
Wed 02:00:03 PM 34.5284 -85.7490 228° Southwest 385 443 28,700 -2,029 Descending FlightAware ADS-B
Wed 02:00:38 PM 34.4869 -85.8055 228° Southwest 392 451 27,400 -2,273 Descending FlightAware ADS-B
Wed 02:01:09 PM 34.4494 -85.8565 228° Southwest 396 456 26,200 -2,250 Descending FlightAware ADS-B
Wed 02:01:50 PM 34.3991 -85.9248 228° Southwest 395 455 24,700 -2,268 Descending FlightAware ADS-B
Wed 02:02:31 PM 34.3493 -85.9922 228° Southwest 388 447 23,100 -2,333 Descending FlightAware ADS-B
Wed 02:03:02 PM 34.3116 -86.0433 228° Southwest 402 463 21,900 -1,911 Descending FlightAware ADS-B
Wed 02:08:07 PM 33.9890 -86.4770 228° Southwest 316 364 12,400 -1,629 Descending FlightAware ADS-B
Wed 02:08:52 PM 33.9500 -86.5290 228° Southwest 316 364 12,400  Level FlightAware ADS-B
Wed 02:09:32 PM 33.9170 -86.5740 229° Southwest 316 364 12,400 -2,291 Level FlightAware ADS-B
Wed 02:10:42 PM 33.8230 -86.6450 212° Southwest 289 333 8,200 -3,000 Descending FlightAware ADS-B
Wed 02:11:12 PM 33.7960 -86.6750 223° Southwest 274 315 7,400 -873 Descending FlightAware ADS-B
Wed 02:11:37 PM 33.7760 -86.6990 225° Southwest 274 315 7,400 -1,645 Level FlightAware ADS-B
Wed 02:12:37 PM 33.7380 -86.7400 222° Southwest 5,700 -2,061 Descending FlightAware ADS-B
Wed 02:13:16 PM 33.6797 -86.8047 222° Southwest 284 327 4,000 -1,636 Descending Atlanta Center
Wed 02:14:16 PM 33.6261 -86.8653 223° Southwest 278 320 3,000 -850 Descending Atlanta Center
Wed 02:15:16 PM 33.5678 -86.8686 183° South 229 264 2,300 -600 Descending Atlanta Center
Wed 02:16:16 PM 33.5436 -86.8278 125° Southeast 153 176 1,800 -632 Descending Atlanta Center
Wed 02:17:29 PM 33.5467 -86.7856 85° East 100 115 900 -740 Descending Atlanta Center
Wed 02:19:00 PM 33.5500 -86.7500 129° Southeast  Level FlightAware Approximate

Login

Don't have an account? Register now (free) for customized features, flight alerts, and more!